Terminal Aerodrome Forecast
Issued by NWS

Home | Current Version | Previous Version | Text Only | Print | Product List | Glossary On
Versions: 1 2 3 4 5 6 7 8 9 10 11 12 13 14 15 16 17 18 19 20 21 22 23 24 25 26 27 28 29 30 31 32 33
738
FTUS43 KGLD 290520
TAFMCK
TAF
KMCK 290520Z 2906/3006 04012KT 4SM -RA BR BKN006
     FM291200 01014G21KT 6SM -SHRA BR BKN006
     FM291800 02017G26KT 4SM -RA BR SCT006 BKN015
      TEMPO 2918/2922 BKN006
     FM300200 01011KT P6SM VCSH BKN020=

USA.gov is the U.S. government's official web portal to all federal, state and local government web resources and services.